sensor_id;sensor_type;location;lat;lon;timestamp;temperature;humidity
9033;DHT22;4551;53.164;8.210;2022-12-18T00:00:00;-4.40;99.90
9033;DHT22;4551;53.164;8.210;2022-12-18T00:02:30;-4.40;99.90
9033;DHT22;4551;53.164;8.210;2022-12-18T00:05:01;-4.30;99.90
9033;DHT22;4551;53.164;8.210;2022-12-18T00:07:31;-4.40;99.90
9033;DHT22;4551;53.164;8.210;2022-12-18T00:10:01;-4.30;99.90
9033;DHT22;4551;53.164;8.210;2022-12-18T00:12:29;-4.30;99.90
9033;DHT22;4551;53.164;8.210;2022-12-18T00:14:57;-4.30;99.90
9033;DHT22;4551;53.164;8.210;2022-12-18T00:17:25;-4.40;99.90
9033;DHT22;4551;53.164;8.210;2022-12-18T00:19:55;-4.40;99.90
9033;DHT22;4551;53.164;8.210;2022-12-18T00:22:23;-4.40;99.90
9033;DHT22;4551;53.164;8.210;2022-12-18T00:24:51;-4.40;99.90
9033;DHT22;4551;53.164;8.210;2022-12-18T00:27:19;-4.40;99.90
9033;DHT22;4551;53.164;8.210;2022-12-18T00:29:47;-4.50;99.90
9033;DHT22;4551;53.164;8.210;2022-12-18T00:32:15;-4.50;99.90
9033;DHT22;4551;53.164;8.210;2022-12-18T00:34:44;-4.50;99.90
9033;DHT22;4551;53.164;8.210;2022-12-18T00:37:14;-4.60;99.90
9033;DHT22;4551;53.164;8.210;2022-12-18T00:39:47;-4.60;99.90
9033;DHT22;4551;53.164;8.210;2022-12-18T00:42:15;-4.60;99.90
9033;DHT22;4551;53.164;8.210;2022-12-18T00:45:01;-4.60;99.90
9033;DHT22;4551;53.164;8.210;2022-12-18T00:47:39;-4.70;99.90
9033;DHT22;4551;53.164;8.210;2022-12-18T00:50:08;-4.70;99.90
9033;DHT22;4551;53.164;8.210;2022-12-18T00:52:37;-4.60;99.90
9033;DHT22;4551;53.164;8.210;2022-12-18T00:55:09;-4.60;99.90
9033;DHT22;4551;53.164;8.210;2022-12-18T00:57:37;-4.70;99.90
9033;DHT22;4551;53.164;8.210;2022-12-18T01:00:06;-4.70;99.90
9033;DHT22;4551;53.164;8.210;2022-12-18T01:02:35;-4.70;99.90
9033;DHT22;4551;53.164;8.210;2022-12-18T01:05:05;-4.80;99.90
9033;DHT22;4551;53.164;8.210;2022-12-18T01:07:33;-4.80;99.90
9033;DHT22;4551;53.164;8.210;2022-12-18T01:10:03;-4.80;99.90
9033;DHT22;4551;53.164;8.210;2022-12-18T01:12:33;-4.70;99.90
9033;DHT22;4551;53.164;8.210;2022-12-18T01:15:01;-4.70;99.90
9033;DHT22;4551;53.164;8.210;2022-12-18T01:17:30;-4.80;99.90
9033;DHT22;4551;53.164;8.210;2022-12-18T01:19:58;-4.80;99.90
9033;DHT22;4551;53.164;8.210;2022-12-18T01:22:26;-4.80;99.90
9033;DHT22;4551;53.164;8.210;2022-12-18T01:24:54;-4.90;99.90
9033;DHT22;4551;53.164;8.210;2022-12-18T01:27:23;-5.00;99.90
9033;DHT22;4551;53.164;8.210;2022-12-18T01:29:51;-5.00;99.90
9033;DHT22;4551;53.164;8.210;2022-12-18T01:32:19;-5.00;99.90
9033;DHT22;4551;53.164;8.210;2022-12-18T01:34:52;-5.10;99.90
9033;DHT22;4551;53.164;8.210;2022-12-18T01:37:20;-5.00;99.90
9033;DHT22;4551;53.164;8.210;2022-12-18T01:39:48;-5.10;99.90
9033;DHT22;4551;53.164;8.210;2022-12-18T01:42:18;-5.10;99.90
9033;DHT22;4551;53.164;8.210;2022-12-18T01:45:08;-5.10;99.90
9033;DHT22;4551;53.164;8.210;2022-12-18T01:47:49;-5.10;99.90
9033;DHT22;4551;53.164;8.210;2022-12-18T01:50:19;-5.20;99.90
9033;DHT22;4551;53.164;8.210;2022-12-18T01:52:48;-5.20;99.90
9033;DHT22;4551;53.164;8.210;2022-12-18T01:55:18;-5.30;99.90
9033;DHT22;4551;53.164;8.210;2022-12-18T01:57:48;-5.30;99.90
9033;DHT22;4551;53.164;8.210;2022-12-18T02:00:19;-5.20;99.90
9033;DHT22;4551;53.164;8.210;2022-12-18T02:02:47;-5.30;99.90
9033;DHT22;4551;53.164;8.210;2022-12-18T02:05:16;-5.30;99.90
9033;DHT22;4551;53.164;8.210;2022-12-18T02:07:47;-5.30;99.90
9033;DHT22;4551;53.164;8.210;2022-12-18T02:10:22;-5.40;99.90
9033;DHT22;4551;53.164;8.210;2022-12-18T02:12:56;-5.40;99.90
9033;DHT22;4551;53.164;8.210;2022-12-18T02:15:32;-5.40;99.90
9033;DHT22;4551;53.164;8.210;2022-12-18T02:18:05;-5.40;99.90
9033;DHT22;4551;53.164;8.210;2022-12-18T02:20:35;-5.50;99.90
9033;DHT22;4551;53.164;8.210;2022-12-18T02:23:06;-5.50;99.90
9033;DHT22;4551;53.164;8.210;2022-12-18T02:25:40;-5.50;99.90
9033;DHT22;4551;53.164;8.210;2022-12-18T02:28:20;-5.50;99.90
9033;DHT22;4551;53.164;8.210;2022-12-18T02:30:50;-5.50;99.90
9033;DHT22;4551;53.164;8.210;2022-12-18T02:33:24;-5.50;99.90
9033;DHT22;4551;53.164;8.210;2022-12-18T02:35:55;-5.50;99.90
9033;DHT22;4551;53.164;8.210;2022-12-18T02:38:26;-5.50;99.90
9033;DHT22;4551;53.164;8.210;2022-12-18T02:40:59;-5.60;99.90
9033;DHT22;4551;53.164;8.210;2022-12-18T02:43:35;-5.60;99.90
9033;DHT22;4551;53.164;8.210;2022-12-18T02:48:46;-5.60;99.90
9033;DHT22;4551;53.164;8.210;2022-12-18T02:51:17;-5.60;99.90
9033;DHT22;4551;53.164;8.210;2022-12-18T02:53:48;-5.60;99.90
9033;DHT22;4551;53.164;8.210;2022-12-18T02:56:19;-5.60;99.90
9033;DHT22;4551;53.164;8.210;2022-12-18T02:58:51;-5.60;99.90
9033;DHT22;4551;53.164;8.210;2022-12-18T03:01:25;-5.70;99.90
9033;DHT22;4551;53.164;8.210;2022-12-18T03:04:01;-5.70;99.90
9033;DHT22;4551;53.164;8.210;2022-12-18T03:06:35;-5.70;99.90
9033;DHT22;4551;53.164;8.210;2022-12-18T03:09:06;-5.70;99.90
9033;DHT22;4551;53.164;8.210;2022-12-18T03:11:36;-5.60;99.90
9033;DHT22;4551;53.164;8.210;2022-12-18T03:14:25;-5.60;99.90
9033;DHT22;4551;53.164;8.210;2022-12-18T03:16:54;-5.60;99.90
9033;DHT22;4551;53.164;8.210;2022-12-18T03:19:26;-5.60;99.90
9033;DHT22;4551;53.164;8.210;2022-12-18T03:21:56;-5.60;99.90
9033;DHT22;4551;53.164;8.210;2022-12-18T03:24:25;-5.60;99.90
9033;DHT22;4551;53.164;8.210;2022-12-18T03:26:54;-5.60;99.90
9033;DHT22;4551;53.164;8.210;2022-12-18T03:29:26;-5.60;99.90
9033;DHT22;4551;53.164;8.210;2022-12-18T03:32:01;-5.60;99.90
9033;DHT22;4551;53.164;8.210;2022-12-18T03:34:30;-5.60;99.90
9033;DHT22;4551;53.164;8.210;2022-12-18T03:37:00;-5.60;99.90
9033;DHT22;4551;53.164;8.210;2022-12-18T03:39:29;-5.60;99.90
9033;DHT22;4551;53.164;8.210;2022-12-18T03:42:01;-5.70;99.90
9033;DHT22;4551;53.164;8.210;2022-12-18T03:44:35;-5.60;99.90
9033;DHT22;4551;53.164;8.210;2022-12-18T03:47:05;-5.70;99.90
9033;DHT22;4551;53.164;8.210;2022-12-18T03:49:38;-5.70;99.90
9033;DHT22;4551;53.164;8.210;2022-12-18T03:52:09;-5.70;99.90
9033;DHT22;4551;53.164;8.210;2022-12-18T03:54:38;-5.70;99.90
9033;DHT22;4551;53.164;8.210;2022-12-18T03:57:15;-5.70;99.90
9033;DHT22;4551;53.164;8.210;2022-12-18T03:59:49;-5.80;99.90
9033;DHT22;4551;53.164;8.210;2022-12-18T04:02:20;-5.80;99.90
9033;DHT22;4551;53.164;8.210;2022-12-18T04:04:50;-5.80;99.90
9033;DHT22;4551;53.164;8.210;2022-12-18T04:07:20;-5.80;99.90
9033;DHT22;4551;53.164;8.210;2022-12-18T04:09:48;-5.80;99.90
9033;DHT22;4551;53.164;8.210;2022-12-18T04:12:20;-5.80;99.90
9033;DHT22;4551;53.164;8.210;2022-12-18T04:14:52;-5.80;99.90
9033;DHT22;4551;53.164;8.210;2022-12-18T04:17:22;-5.90;99.90
9033;DHT22;4551;53.164;8.210;2022-12-18T04:19:54;-5.90;99.90
9033;DHT22;4551;53.164;8.210;2022-12-18T04:22:24;-5.90;99.90
9033;DHT22;4551;53.164;8.210;2022-12-18T04:24:56;-5.90;99.90
9033;DHT22;4551;53.164;8.210;2022-12-18T04:27:24;-5.90;99.90
9033;DHT22;4551;53.164;8.210;2022-12-18T04:29:53;-6.00;99.90
9033;DHT22;4551;53.164;8.210;2022-12-18T04:32:23;-6.00;99.90
9033;DHT22;4551;53.164;8.210;2022-12-18T04:34:55;-6.00;99.90
9033;DHT22;4551;53.164;8.210;2022-12-18T04:37:23;-6.00;99.90
9033;DHT22;4551;53.164;8.210;2022-12-18T04:39:55;-6.00;99.90
9033;DHT22;4551;53.164;8.210;2022-12-18T04:42:27;-6.00;99.90
9033;DHT22;4551;53.164;8.210;2022-12-18T04:44:57;-6.00;99.90
9033;DHT22;4551;53.164;8.210;2022-12-18T04:47:27;-6.20;99.90
9033;DHT22;4551;53.164;8.210;2022-12-18T04:49:55;-6.00;99.90
9033;DHT22;4551;53.164;8.210;2022-12-18T04:52:26;-6.10;99.90
9033;DHT22;4551;53.164;8.210;2022-12-18T04:54:54;-6.10;99.90
9033;DHT22;4551;53.164;8.210;2022-12-18T04:57:22;-6.10;99.90
9033;DHT22;4551;53.164;8.210;2022-12-18T04:59:50;-6.10;99.90
9033;DHT22;4551;53.164;8.210;2022-12-18T05:02:23;-6.20;99.90
9033;DHT22;4551;53.164;8.210;2022-12-18T05:05:00;-6.10;99.90
9033;DHT22;4551;53.164;8.210;2022-12-18T05:07:28;-6.10;99.90
9033;DHT22;4551;53.164;8.210;2022-12-18T05:09:59;-6.10;99.90
9033;DHT22;4551;53.164;8.210;2022-12-18T05:12:29;-6.10;99.90
9033;DHT22;4551;53.164;8.210;2022-12-18T05:15:04;-6.10;99.90
9033;DHT22;4551;53.164;8.210;2022-12-18T05:17:33;-6.10;99.90
9033;DHT22;4551;53.164;8.210;2022-12-18T05:20:02;-6.10;99.90
9033;DHT22;4551;53.164;8.210;2022-12-18T05:22:35;-6.10;99.90
9033;DHT22;4551;53.164;8.210;2022-12-18T05:25:03;-6.10;99.90
9033;DHT22;4551;53.164;8.210;2022-12-18T05:27:35;-6.00;99.90
9033;DHT22;4551;53.164;8.210;2022-12-18T05:30:07;-6.00;99.90
9033;DHT22;4551;53.164;8.210;2022-12-18T05:32:37;-6.00;99.90
9033;DHT22;4551;53.164;8.210;2022-12-18T05:35:06;-6.10;99.90
9033;DHT22;4551;53.164;8.210;2022-12-18T05:37:34;-6.10;99.90
9033;DHT22;4551;53.164;8.210;2022-12-18T05:40:09;-6.00;99.90
9033;DHT22;4551;53.164;8.210;2022-12-18T05:42:37;-6.10;99.90
9033;DHT22;4551;53.164;8.210;2022-12-18T05:45:06;-6.10;99.90
9033;DHT22;4551;53.164;8.210;2022-12-18T05:47:34;-6.10;99.90
9033;DHT22;4551;53.164;8.210;2022-12-18T05:50:04;-6.10;99.90
9033;DHT22;4551;53.164;8.210;2022-12-18T05:52:32;-6.10;99.90
9033;DHT22;4551;53.164;8.210;2022-12-18T05:55:00;-6.10;99.90
9033;DHT22;4551;53.164;8.210;2022-12-18T05:57:28;-6.10;99.90
9033;DHT22;4551;53.164;8.210;2022-12-18T05:59:56;-6.20;99.90
9033;DHT22;4551;53.164;8.210;2022-12-18T06:02:24;-6.10;99.90
9033;DHT22;4551;53.164;8.210;2022-12-18T06:04:52;-6.10;99.90
9033;DHT22;4551;53.164;8.210;2022-12-18T06:07:21;-6.10;99.90
9033;DHT22;4551;53.164;8.210;2022-12-18T06:09:49;-6.20;99.90
9033;DHT22;4551;53.164;8.210;2022-12-18T06:12:17;-6.20;99.90
9033;DHT22;4551;53.164;8.210;2022-12-18T06:14:45;-6.20;99.90
9033;DHT22;4551;53.164;8.210;2022-12-18T06:17:17;-6.20;99.90
9033;DHT22;4551;53.164;8.210;2022-12-18T06:19:45;-6.20;99.90
9033;DHT22;4551;53.164;8.210;2022-12-18T06:22:13;-6.10;99.90
9033;DHT22;4551;53.164;8.210;2022-12-18T06:24:42;-6.10;99.90
9033;DHT22;4551;53.164;8.210;2022-12-18T06:27:10;-6.10;99.90
9033;DHT22;4551;53.164;8.210;2022-12-18T06:29:39;-6.10;99.90
9033;DHT22;4551;53.164;8.210;2022-12-18T06:32:07;-6.10;99.90
9033;DHT22;4551;53.164;8.210;2022-12-18T06:34:36;-5.50;99.90
9033;DHT22;4551;53.164;8.210;2022-12-18T06:37:04;-6.20;99.90
9033;DHT22;4551;53.164;8.210;2022-12-18T06:39:33;-6.20;99.90
9033;DHT22;4551;53.164;8.210;2022-12-18T06:42:02;-6.20;99.90
9033;DHT22;4551;53.164;8.210;2022-12-18T06:44:30;-6.20;99.90
9033;DHT22;4551;53.164;8.210;2022-12-18T06:46:58;-6.20;99.90
9033;DHT22;4551;53.164;8.210;2022-12-18T06:49:26;-6.20;99.90
9033;DHT22;4551;53.164;8.210;2022-12-18T06:51:56;-6.20;99.90
9033;DHT22;4551;53.164;8.210;2022-12-18T06:54:24;-6.20;99.90
9033;DHT22;4551;53.164;8.210;2022-12-18T06:56:52;-6.20;99.90
9033;DHT22;4551;53.164;8.210;2022-12-18T06:59:21;-6.20;99.90
9033;DHT22;4551;53.164;8.210;2022-12-18T07:01:49;-6.20;99.90
9033;DHT22;4551;53.164;8.210;2022-12-18T07:04:18;-6.30;99.90
9033;DHT22;4551;53.164;8.210;2022-12-18T07:06:46;-6.20;99.90
9033;DHT22;4551;53.164;8.210;2022-12-18T07:09:14;-6.20;99.90
9033;DHT22;4551;53.164;8.210;2022-12-18T07:11:42;-6.20;99.90
9033;DHT22;4551;53.164;8.210;2022-12-18T07:14:10;-6.20;99.90
9033;DHT22;4551;53.164;8.210;2022-12-18T07:16:39;-6.20;99.90
9033;DHT22;4551;53.164;8.210;2022-12-18T07:19:08;-6.20;99.90
9033;DHT22;4551;53.164;8.210;2022-12-18T07:21:36;-6.20;99.90
9033;DHT22;4551;53.164;8.210;2022-12-18T07:24:04;-6.20;99.90
9033;DHT22;4551;53.164;8.210;2022-12-18T07:26:32;-6.20;99.90
9033;DHT22;4551;53.164;8.210;2022-12-18T07:29:02;-6.20;99.90
9033;DHT22;4551;53.164;8.210;2022-12-18T07:31:30;-6.20;99.90
9033;DHT22;4551;53.164;8.210;2022-12-18T07:34:00;-6.10;99.90
9033;DHT22;4551;53.164;8.210;2022-12-18T07:36:28;-6.10;99.90
9033;DHT22;4551;53.164;8.210;2022-12-18T07:38:58;-6.10;99.90
9033;DHT22;4551;53.164;8.210;2022-12-18T07:41:27;-6.10;99.90
9033;DHT22;4551;53.164;8.210;2022-12-18T07:43:55;-6.20;99.90
9033;DHT22;4551;53.164;8.210;2022-12-18T07:46:23;-6.20;99.90
9033;DHT22;4551;53.164;8.210;2022-12-18T07:48:51;-6.20;99.90
9033;DHT22;4551;53.164;8.210;2022-12-18T07:51:20;-6.20;99.90
9033;DHT22;4551;53.164;8.210;2022-12-18T07:53:48;-6.20;99.90
9033;DHT22;4551;53.164;8.210;2022-12-18T07:56:18;-6.20;99.90
9033;DHT22;4551;53.164;8.210;2022-12-18T07:58:56;-6.20;99.90
9033;DHT22;4551;53.164;8.210;2022-12-18T08:01:24;-6.20;99.90
9033;DHT22;4551;53.164;8.210;2022-12-18T08:03:53;-6.20;99.90
9033;DHT22;4551;53.164;8.210;2022-12-18T08:06:22;-6.20;99.90
9033;DHT22;4551;53.164;8.210;2022-12-18T08:08:51;-6.10;99.90
9033;DHT22;4551;53.164;8.210;2022-12-18T08:11:20;-6.10;99.90
9033;DHT22;4551;53.164;8.210;2022-12-18T08:13:48;-6.00;99.90
9033;DHT22;4551;53.164;8.210;2022-12-18T08:16:16;-6.00;99.90
9033;DHT22;4551;53.164;8.210;2022-12-18T08:18:47;-5.90;99.90
9033;DHT22;4551;53.164;8.210;2022-12-18T08:21:17;-5.80;99.90
9033;DHT22;4551;53.164;8.210;2022-12-18T08:23:49;-5.80;99.90
9033;DHT22;4551;53.164;8.210;2022-12-18T08:26:18;-5.80;99.90
9033;DHT22;4551;53.164;8.210;2022-12-18T08:28:47;-5.80;99.90
9033;DHT22;4551;53.164;8.210;2022-12-18T08:31:16;-5.80;99.90
9033;DHT22;4551;53.164;8.210;2022-12-18T08:33:45;-5.80;99.90
9033;DHT22;4551;53.164;8.210;2022-12-18T08:36:16;-5.80;99.90
9033;DHT22;4551;53.164;8.210;2022-12-18T08:38:44;-5.80;99.90
9033;DHT22;4551;53.164;8.210;2022-12-18T08:41:18;-5.80;99.90
9033;DHT22;4551;53.164;8.210;2022-12-18T08:43:46;-5.70;99.90
9033;DHT22;4551;53.164;8.210;2022-12-18T08:46:32;-5.70;99.90
9033;DHT22;4551;53.164;8.210;2022-12-18T08:49:03;-5.60;99.90
9033;DHT22;4551;53.164;8.210;2022-12-18T08:51:31;-5.60;99.90
9033;DHT22;4551;53.164;8.210;2022-12-18T08:53:59;-5.60;99.90
9033;DHT22;4551;53.164;8.210;2022-12-18T08:56:30;-5.50;99.90
9033;DHT22;4551;53.164;8.210;2022-12-18T08:58:58;-5.50;99.90
9033;DHT22;4551;53.164;8.210;2022-12-18T09:01:27;-5.50;99.90
9033;DHT22;4551;53.164;8.210;2022-12-18T09:03:55;-5.40;99.90
9033;DHT22;4551;53.164;8.210;2022-12-18T09:06:23;-5.40;99.90
9033;DHT22;4551;53.164;8.210;2022-12-18T09:08:53;-5.30;99.90
9033;DHT22;4551;53.164;8.210;2022-12-18T09:11:21;-5.30;99.90
9033;DHT22;4551;53.164;8.210;2022-12-18T09:13:51;-5.20;99.90
9033;DHT22;4551;53.164;8.210;2022-12-18T09:16:20;-5.20;99.90
9033;DHT22;4551;53.164;8.210;2022-12-18T09:18:56;-5.10;99.90
9033;DHT22;4551;53.164;8.210;2022-12-18T09:21:26;-5.10;99.90
9033;DHT22;4551;53.164;8.210;2022-12-18T09:23:55;-5.00;99.90
9033;DHT22;4551;53.164;8.210;2022-12-18T09:26:23;-5.00;99.90
9033;DHT22;4551;53.164;8.210;2022-12-18T09:28:52;-4.90;99.90
9033;DHT22;4551;53.164;8.210;2022-12-18T09:31:21;-4.90;99.90
9033;DHT22;4551;53.164;8.210;2022-12-18T09:33:50;-4.80;99.90
9033;DHT22;4551;53.164;8.210;2022-12-18T09:36:18;-4.80;99.90
9033;DHT22;4551;53.164;8.210;2022-12-18T09:38:47;-4.70;99.90
9033;DHT22;4551;53.164;8.210;2022-12-18T09:41:19;-4.70;99.90
9033;DHT22;4551;53.164;8.210;2022-12-18T09:43:51;-4.60;99.90
9033;DHT22;4551;53.164;8.210;2022-12-18T09:46:23;-4.60;99.90
9033;DHT22;4551;53.164;8.210;2022-12-18T09:48:56;-4.50;99.90
9033;DHT22;4551;53.164;8.210;2022-12-18T09:51:35;-4.50;99.90
9033;DHT22;4551;53.164;8.210;2022-12-18T09:54:06;-4.40;99.90
9033;DHT22;4551;53.164;8.210;2022-12-18T09:56:35;-4.40;99.90
9033;DHT22;4551;53.164;8.210;2022-12-18T09:59:05;-4.30;99.90
9033;DHT22;4551;53.164;8.210;2022-12-18T10:01:35;-4.30;99.90
9033;DHT22;4551;53.164;8.210;2022-12-18T10:04:11;-4.20;99.90
9033;DHT22;4551;53.164;8.210;2022-12-18T10:06:42;-4.10;99.90
9033;DHT22;4551;53.164;8.210;2022-12-18T10:09:15;-4.10;99.90
9033;DHT22;4551;53.164;8.210;2022-12-18T10:11:52;-4.00;99.90
9033;DHT22;4551;53.164;8.210;2022-12-18T10:14:26;-4.00;99.90
9033;DHT22;4551;53.164;8.210;2022-12-18T10:16:58;-3.90;99.90
9033;DHT22;4551;53.164;8.210;2022-12-18T10:22:20;-3.80;99.90
9033;DHT22;4551;53.164;8.210;2022-12-18T10:24:53;-3.80;99.90
9033;DHT22;4551;53.164;8.210;2022-12-18T10:27:24;-3.70;99.90
9033;DHT22;4551;53.164;8.210;2022-12-18T10:29:54;-3.60;99.90
9033;DHT22;4551;53.164;8.210;2022-12-18T10:32:24;-3.60;99.90
9033;DHT22;4551;53.164;8.210;2022-12-18T10:34:55;-3.50;99.90
9033;DHT22;4551;53.164;8.210;2022-12-18T10:37:29;-3.50;99.90
9033;DHT22;4551;53.164;8.210;2022-12-18T10:40:11;-3.50;99.90
9033;DHT22;4551;53.164;8.210;2022-12-18T10:42:45;-3.40;99.90
9033;DHT22;4551;53.164;8.210;2022-12-18T10:45:14;-3.30;99.90
9033;DHT22;4551;53.164;8.210;2022-12-18T10:47:47;-3.30;99.90
9033;DHT22;4551;53.164;8.210;2022-12-18T10:50:18;-3.20;99.90
9033;DHT22;4551;53.164;8.210;2022-12-18T10:52:52;-3.20;99.90
9033;DHT22;4551;53.164;8.210;2022-12-18T10:55:21;-3.10;99.90
9033;DHT22;4551;53.164;8.210;2022-12-18T10:57:51;-3.00;99.90
9033;DHT22;4551;53.164;8.210;2022-12-18T11:00:23;-3.00;99.90
9033;DHT22;4551;53.164;8.210;2022-12-18T11:02:53;-2.90;99.90
9033;DHT22;4551;53.164;8.210;2022-12-18T11:05:24;-2.90;99.90
9033;DHT22;4551;53.164;8.210;2022-12-18T11:07:53;-2.70;99.90
9033;DHT22;4551;53.164;8.210;2022-12-18T11:10:22;-2.70;99.90
9033;DHT22;4551;53.164;8.210;2022-12-18T11:12:51;-2.60;99.90
9033;DHT22;4551;53.164;8.210;2022-12-18T11:15:21;-2.50;99.90
9033;DHT22;4551;53.164;8.210;2022-12-18T11:17:52;-2.40;99.90
9033;DHT22;4551;53.164;8.210;2022-12-18T11:20:21;-2.30;99.90
9033;DHT22;4551;53.164;8.210;2022-12-18T11:22:54;-2.20;99.90
9033;DHT22;4551;53.164;8.210;2022-12-18T11:25:23;-2.20;99.90
9033;DHT22;4551;53.164;8.210;2022-12-18T11:28:02;-2.10;99.90
9033;DHT22;4551;53.164;8.210;2022-12-18T11:30:32;-2.00;99.90
9033;DHT22;4551;53.164;8.210;2022-12-18T11:33:03;-1.90;99.90
9033;DHT22;4551;53.164;8.210;2022-12-18T11:35:35;-1.80;99.90
9033;DHT22;4551;53.164;8.210;2022-12-18T11:38:06;-1.80;99.90
9033;DHT22;4551;53.164;8.210;2022-12-18T11:40:42;-1.70;99.90
9033;DHT22;4551;53.164;8.210;2022-12-18T11:43:14;-1.60;99.90
9033;DHT22;4551;53.164;8.210;2022-12-18T11:45:48;-1.60;99.90
9033;DHT22;4551;53.164;8.210;2022-12-18T11:48:22;-1.50;99.90
9033;DHT22;4551;53.164;8.210;2022-12-18T11:50:52;-1.40;99.90
9033;DHT22;4551;53.164;8.210;2022-12-18T11:53:21;-1.40;99.90
9033;DHT22;4551;53.164;8.210;2022-12-18T11:55:54;-1.40;99.90
9033;DHT22;4551;53.164;8.210;2022-12-18T11:58:29;-1.30;99.90
9033;DHT22;4551;53.164;8.210;2022-12-18T12:01:03;-1.20;99.90
9033;DHT22;4551;53.164;8.210;2022-12-18T12:03:39;-1.20;99.90
9033;DHT22;4551;53.164;8.210;2022-12-18T12:06:13;-1.20;99.90
9033;DHT22;4551;53.164;8.210;2022-12-18T12:08:49;-1.10;99.90
9033;DHT22;4551;53.164;8.210;2022-12-18T12:11:23;-1.10;99.90
9033;DHT22;4551;53.164;8.210;2022-12-18T12:14:01;-1.10;99.90
9033;DHT22;4551;53.164;8.210;2022-12-18T12:16:35;-1.10;99.90
9033;DHT22;4551;53.164;8.210;2022-12-18T12:19:11;-1.10;99.90
9033;DHT22;4551;53.164;8.210;2022-12-18T12:21:46;-1.00;99.90
9033;DHT22;4551;53.164;8.210;2022-12-18T12:24:20;-1.00;99.90
9033;DHT22;4551;53.164;8.210;2022-12-18T12:26:56;-1.00;99.90
9033;DHT22;4551;53.164;8.210;2022-12-18T12:29:29;-1.00;99.90
9033;DHT22;4551;53.164;8.210;2022-12-18T12:32:02;-1.00;99.90
9033;DHT22;4551;53.164;8.210;2022-12-18T12:34:35;-1.00;99.90
9033;DHT22;4551;53.164;8.210;2022-12-18T12:37:10;-1.00;99.90
9033;DHT22;4551;53.164;8.210;2022-12-18T12:39:43;-1.00;99.90
9033;DHT22;4551;53.164;8.210;2022-12-18T12:42:13;-1.10;99.90
9033;DHT22;4551;53.164;8.210;2022-12-18T12:45:02;-1.00;99.90
9033;DHT22;4551;53.164;8.210;2022-12-18T12:47:32;-1.10;99.90
9033;DHT22;4551;53.164;8.210;2022-12-18T12:50:05;-1.10;99.90
9033;DHT22;4551;53.164;8.210;2022-12-18T12:52:39;-1.10;99.90
9033;DHT22;4551;53.164;8.210;2022-12-18T12:57:55;-1.10;99.90
9033;DHT22;4551;53.164;8.210;2022-12-18T13:00:25;-1.10;99.90
9033;DHT22;4551;53.164;8.210;2022-12-18T13:02:59;-1.10;99.90
9033;DHT22;4551;53.164;8.210;2022-12-18T13:05:43;-1.10;99.90
9033;DHT22;4551;53.164;8.210;2022-12-18T13:08:21;-1.10;99.90
9033;DHT22;4551;53.164;8.210;2022-12-18T13:10:51;-1.10;99.90
9033;DHT22;4551;53.164;8.210;2022-12-18T13:13:47;-1.10;99.90
9033;DHT22;4551;53.164;8.210;2022-12-18T13:16:18;-1.10;99.90
9033;DHT22;4551;53.164;8.210;2022-12-18T13:18:50;-1.10;99.90
9033;DHT22;4551;53.164;8.210;2022-12-18T13:21:23;-1.10;99.90
9033;DHT22;4551;53.164;8.210;2022-12-18T13:23:52;-1.10;99.90
9033;DHT22;4551;53.164;8.210;2022-12-18T13:26:30;-1.10;99.90
9033;DHT22;4551;53.164;8.210;2022-12-18T13:29:01;-1.10;99.90
9033;DHT22;4551;53.164;8.210;2022-12-18T13:34:31;-1.10;99.90
9033;DHT22;4551;53.164;8.210;2022-12-18T13:39:54;-1.10;99.90
9033;DHT22;4551;53.164;8.210;2022-12-18T13:42:34;-1.10;99.90
9033;DHT22;4551;53.164;8.210;2022-12-18T13:45:42;-1.10;99.90
9033;DHT22;4551;53.164;8.210;2022-12-18T13:48:21;-1.10;99.90
9033;DHT22;4551;53.164;8.210;2022-12-18T13:50:55;-1.10;99.90
9033;DHT22;4551;53.164;8.210;2022-12-18T13:53:26;-1.10;99.90
9033;DHT22;4551;53.164;8.210;2022-12-18T13:55:56;-1.20;99.90
9033;DHT22;4551;53.164;8.210;2022-12-18T13:58:25;-1.20;99.90
9033;DHT22;4551;53.164;8.210;2022-12-18T14:00:53;-1.20;99.90
9033;DHT22;4551;53.164;8.210;2022-12-18T14:03:22;-1.20;99.90
9033;DHT22;4551;53.164;8.210;2022-12-18T14:05:55;-1.20;99.90
9033;DHT22;4551;53.164;8.210;2022-12-18T14:08:23;-1.20;99.90
9033;DHT22;4551;53.164;8.210;2022-12-18T14:10:53;-1.30;99.90
9033;DHT22;4551;53.164;8.210;2022-12-18T14:13:26;-1.30;99.90
9033;DHT22;4551;53.164;8.210;2022-12-18T14:15:55;-1.30;99.90
9033;DHT22;4551;53.164;8.210;2022-12-18T14:18:29;-1.30;99.90
9033;DHT22;4551;53.164;8.210;2022-12-18T14:21:00;-1.30;99.90
9033;DHT22;4551;53.164;8.210;2022-12-18T14:23:29;-1.30;99.90
9033;DHT22;4551;53.164;8.210;2022-12-18T14:25:59;-1.40;99.90
9033;DHT22;4551;53.164;8.210;2022-12-18T14:28:42;-1.40;99.90
9033;DHT22;4551;53.164;8.210;2022-12-18T14:31:16;-1.40;99.90
9033;DHT22;4551;53.164;8.210;2022-12-18T14:33:45;-1.40;99.90
9033;DHT22;4551;53.164;8.210;2022-12-18T14:36:17;-1.40;99.90
9033;DHT22;4551;53.164;8.210;2022-12-18T14:38:50;-1.50;99.90
9033;DHT22;4551;53.164;8.210;2022-12-18T14:41:20;-1.40;99.90
9033;DHT22;4551;53.164;8.210;2022-12-18T14:43:53;-1.50;99.90
9033;DHT22;4551;53.164;8.210;2022-12-18T14:46:26;-1.50;99.90
9033;DHT22;4551;53.164;8.210;2022-12-18T14:48:55;-1.50;99.90
9033;DHT22;4551;53.164;8.210;2022-12-18T14:51:29;-1.50;99.90
9033;DHT22;4551;53.164;8.210;2022-12-18T14:53:59;-1.50;99.90
9033;DHT22;4551;53.164;8.210;2022-12-18T14:56:29;-1.50;99.90
9033;DHT22;4551;53.164;8.210;2022-12-18T14:58:59;-1.60;99.90
9033;DHT22;4551;53.164;8.210;2022-12-18T15:01:28;-1.60;99.90
9033;DHT22;4551;53.164;8.210;2022-12-18T15:03:57;-1.60;99.90
9033;DHT22;4551;53.164;8.210;2022-12-18T15:06:27;-1.60;99.90
9033;DHT22;4551;53.164;8.210;2022-12-18T15:08:57;-1.60;99.90
9033;DHT22;4551;53.164;8.210;2022-12-18T15:11:26;-1.60;99.90
9033;DHT22;4551;53.164;8.210;2022-12-18T15:13:54;-1.60;99.90
9033;DHT22;4551;53.164;8.210;2022-12-18T15:16:23;-1.60;99.90
9033;DHT22;4551;53.164;8.210;2022-12-18T15:18:52;-1.70;99.90
9033;DHT22;4551;53.164;8.210;2022-12-18T15:21:20;-1.70;99.90
9033;DHT22;4551;53.164;8.210;2022-12-18T15:23:49;-1.70;99.90
9033;DHT22;4551;53.164;8.210;2022-12-18T15:26:18;-1.70;99.90
9033;DHT22;4551;53.164;8.210;2022-12-18T15:28:48;-1.70;99.90
9033;DHT22;4551;53.164;8.210;2022-12-18T15:31:21;-1.70;99.90
9033;DHT22;4551;53.164;8.210;2022-12-18T15:34:01;-1.70;99.90
9033;DHT22;4551;53.164;8.210;2022-12-18T15:36:35;-1.70;99.90
9033;DHT22;4551;53.164;8.210;2022-12-18T15:39:03;-2.10;99.90
9033;DHT22;4551;53.164;8.210;2022-12-18T15:41:33;-1.70;99.90
9033;DHT22;4551;53.164;8.210;2022-12-18T15:44:02;-1.70;99.90
9033;DHT22;4551;53.164;8.210;2022-12-18T15:46:35;-1.70;99.90
9033;DHT22;4551;53.164;8.210;2022-12-18T15:49:06;-1.70;99.90
9033;DHT22;4551;53.164;8.210;2022-12-18T15:51:35;-1.70;99.90
9033;DHT22;4551;53.164;8.210;2022-12-18T15:54:05;-1.70;99.90
9033;DHT22;4551;53.164;8.210;2022-12-18T15:56:36;-1.70;99.90
9033;DHT22;4551;53.164;8.210;2022-12-18T15:59:22;-1.70;99.90
9033;DHT22;4551;53.164;8.210;2022-12-18T16:01:51;-1.70;99.90
9033;DHT22;4551;53.164;8.210;2022-12-18T16:04:24;-1.70;99.90
9033;DHT22;4551;53.164;8.210;2022-12-18T16:06:52;-1.70;99.90
9033;DHT22;4551;53.164;8.210;2022-12-18T16:09:40;-1.70;99.90
9033;DHT22;4551;53.164;8.210;2022-12-18T16:12:14;-1.70;99.90
9033;DHT22;4551;53.164;8.210;2022-12-18T16:14:43;-1.70;99.90
9033;DHT22;4551;53.164;8.210;2022-12-18T16:17:11;-1.70;99.90
9033;DHT22;4551;53.164;8.210;2022-12-18T16:19:44;-1.70;99.90
9033;DHT22;4551;53.164;8.210;2022-12-18T16:22:17;-1.60;99.90
9033;DHT22;4551;53.164;8.210;2022-12-18T16:24:48;-1.70;99.90
9033;DHT22;4551;53.164;8.210;2022-12-18T16:27:16;-1.70;99.90
9033;DHT22;4551;53.164;8.210;2022-12-18T16:29:45;-1.60;99.90
9033;DHT22;4551;53.164;8.210;2022-12-18T16:32:14;-1.60;99.90
9033;DHT22;4551;53.164;8.210;2022-12-18T16:34:44;-1.60;99.90
9033;DHT22;4551;53.164;8.210;2022-12-18T16:37:13;-1.60;99.90
9033;DHT22;4551;53.164;8.210;2022-12-18T16:39:41;-1.60;99.90